sensor_id;sensor_type;location;lat;lon;timestamp;pressure;altitude;pressure_sealevel;temperature;humidity
3096;BME280;1558;42.700;23.360;2023-07-13T00:00:58;95533.94;;;24.52;64.63
3096;BME280;1558;42.700;23.360;2023-07-13T00:03:27;95534.56;;;24.63;64.55
3096;BME280;1558;42.700;23.360;2023-07-13T00:06:02;95516.19;;;24.53;64.96
3096;BME280;1558;42.700;23.360;2023-07-13T00:08:31;95533.94;;;24.52;65.40
3096;BME280;1558;42.700;23.360;2023-07-13T00:11:00;95528.22;;;24.66;66.19
3096;BME280;1558;42.700;23.360;2023-07-13T00:13:28;95505.84;;;24.34;66.65
3096;BME280;1558;42.700;23.360;2023-07-13T00:15:57;95510.47;;;24.41;67.50
3096;BME280;1558;42.700;23.360;2023-07-13T00:18:25;95528.31;;;24.59;67.48
3096;BME280;1558;42.700;23.360;2023-07-13T00:20:57;95526.25;;;24.67;67.97
3096;BME280;1558;42.700;23.360;2023-07-13T00:23:33;95517.50;;;24.72;67.91
3096;BME280;1558;42.700;23.360;2023-07-13T00:26:02;95470.63;;;24.42;68.26
3096;BME280;1558;42.700;23.360;2023-07-13T00:28:30;95521.91;;;24.66;69.28
3096;BME280;1558;42.700;23.360;2023-07-13T00:30:58;95517.31;;;24.56;69.64
3096;BME280;1558;42.700;23.360;2023-07-13T00:33:29;95509.47;;;24.54;70.48
3096;BME280;1558;42.700;23.360;2023-07-13T00:35:58;95508.66;;;24.57;70.22
3096;BME280;1558;42.700;23.360;2023-07-13T00:38:26;95504.22;;;24.63;71.34
3096;BME280;1558;42.700;23.360;2023-07-13T00:40:55;95507.19;;;24.49;72.20
3096;BME280;1558;42.700;23.360;2023-07-13T00:43:27;95466.81;;;24.02;73.76
3096;BME280;1558;42.700;23.360;2023-07-13T00:46:13;95507.56;;;24.21;75.34
3096;BME280;1558;42.700;23.360;2023-07-13T00:48:43;95518.72;;;24.10;78.05
3096;BME280;1558;42.700;23.360;2023-07-13T00:51:13;95501.03;;;23.74;80.50
3096;BME280;1558;42.700;23.360;2023-07-13T00:53:44;95517.59;;;23.71;81.75
3096;BME280;1558;42.700;23.360;2023-07-13T00:56:13;95511.28;;;23.70;82.99
3096;BME280;1558;42.700;23.360;2023-07-13T00:58:42;95510.34;;;23.50;83.81
3096;BME280;1558;42.700;23.360;2023-07-13T01:01:11;95505.31;;;23.41;84.40
3096;BME280;1558;42.700;23.360;2023-07-13T01:03:40;95502.53;;;23.45;85.29
3096;BME280;1558;42.700;23.360;2023-07-13T01:06:08;95501.22;;;23.56;85.05
3096;BME280;1558;42.700;23.360;2023-07-13T01:08:37;95486.97;;;23.65;84.29
3096;BME280;1558;42.700;23.360;2023-07-13T01:11:06;95503.28;;;23.83;84.25
3096;BME280;1558;42.700;23.360;2023-07-13T01:13:37;95504.09;;;23.80;84.52
3096;BME280;1558;42.700;23.360;2023-07-13T01:16:14;95505.75;;;23.74;85.09
3096;BME280;1558;42.700;23.360;2023-07-13T01:18:42;95458.16;;;23.32;85.64
3096;BME280;1558;42.700;23.360;2023-07-13T01:21:12;95499.81;;;23.75;85.45
3096;BME280;1558;42.700;23.360;2023-07-13T01:23:40;95501.06;;;23.71;85.27
3096;BME280;1558;42.700;23.360;2023-07-13T01:26:08;95510.81;;;23.79;85.25
3096;BME280;1558;42.700;23.360;2023-07-13T01:28:36;95462.63;;;23.60;85.83
3096;BME280;1558;42.700;23.360;2023-07-13T01:31:04;95497.06;;;23.75;86.25
3096;BME280;1558;42.700;23.360;2023-07-13T01:33:32;95503.00;;;23.74;85.94
3096;BME280;1558;42.700;23.360;2023-07-13T01:36:03;95505.94;;;23.56;86.63
3096;BME280;1558;42.700;23.360;2023-07-13T01:38:33;95494.63;;;23.47;87.31
3096;BME280;1558;42.700;23.360;2023-07-13T01:41:02;95468.00;;;23.33;87.67
3096;BME280;1558;42.700;23.360;2023-07-13T01:43:30;95504.75;;;23.57;87.73
3096;BME280;1558;42.700;23.360;2023-07-13T01:45:59;95465.63;;;23.35;87.10
3096;BME280;1558;42.700;23.360;2023-07-13T01:48:46;95491.78;;;23.54;87.30
3096;BME280;1558;42.700;23.360;2023-07-13T01:51:17;95497.81;;;23.45;87.88
3096;BME280;1558;42.700;23.360;2023-07-13T01:53:47;95456.78;;;23.14;88.02
3096;BME280;1558;42.700;23.360;2023-07-13T01:56:15;95497.91;;;23.35;87.79
3096;BME280;1558;42.700;23.360;2023-07-13T01:58:44;95495.03;;;23.45;88.00
3096;BME280;1558;42.700;23.360;2023-07-13T02:01:12;95474.81;;;23.18;87.80
3096;BME280;1558;42.700;23.360;2023-07-13T02:03:40;95500.84;;;23.54;87.55
3096;BME280;1558;42.700;23.360;2023-07-13T02:06:08;95504.03;;;23.53;87.03
3096;BME280;1558;42.700;23.360;2023-07-13T02:08:37;95481.78;;;23.30;87.28
3096;BME280;1558;42.700;23.360;2023-07-13T02:11:06;95500.66;;;23.31;89.41
3096;BME280;1558;42.700;23.360;2023-07-13T02:13:34;95508.94;;;23.31;89.29
3096;BME280;1558;42.700;23.360;2023-07-13T02:16:03;95505.88;;;23.22;90.54
3096;BME280;1558;42.700;23.360;2023-07-13T02:18:31;95507.97;;;23.04;91.94
3096;BME280;1558;42.700;23.360;2023-07-13T02:20:59;95504.00;;;23.12;92.54
3096;BME280;1558;42.700;23.360;2023-07-13T02:23:27;95505.47;;;23.20;92.36
3096;BME280;1558;42.700;23.360;2023-07-13T02:25:55;95502.53;;;22.97;92.72
3096;BME280;1558;42.700;23.360;2023-07-13T02:28:25;95512.84;;;22.86;93.93
3096;BME280;1558;42.700;23.360;2023-07-13T02:30:53;95505.84;;;22.78;94.71
3096;BME280;1558;42.700;23.360;2023-07-13T02:33:21;95524.00;;;22.65;95.54
3096;BME280;1558;42.700;23.360;2023-07-13T02:35:49;95520.00;;;22.73;96.59
3096;BME280;1558;42.700;23.360;2023-07-13T02:38:17;95513.28;;;22.77;96.25
3096;BME280;1558;42.700;23.360;2023-07-13T02:40:46;95503.91;;;22.71;96.60
3096;BME280;1558;42.700;23.360;2023-07-13T02:43:14;95514.06;;;22.81;96.60
3096;BME280;1558;42.700;23.360;2023-07-13T02:45:45;95492.97;;;22.64;95.49
3096;BME280;1558;42.700;23.360;2023-07-13T02:48:14;95518.53;;;22.61;96.00
3096;BME280;1558;42.700;23.360;2023-07-13T02:50:42;95524.88;;;22.48;97.25
3096;BME280;1558;42.700;23.360;2023-07-13T02:53:10;95519.31;;;22.62;97.47
3096;BME280;1558;42.700;23.360;2023-07-13T02:55:38;95519.28;;;22.58;97.85
3096;BME280;1558;42.700;23.360;2023-07-13T02:58:07;95517.75;;;22.54;97.53
3096;BME280;1558;42.700;23.360;2023-07-13T03:00:39;95518.66;;;22.37;97.88
3096;BME280;1558;42.700;23.360;2023-07-13T03:03:09;95517.16;;;22.21;98.74
3096;BME280;1558;42.700;23.360;2023-07-13T03:05:37;95493.75;;;21.92;99.69
3096;BME280;1558;42.700;23.360;2023-07-13T03:08:05;95517.03;;;22.43;99.88
3096;BME280;1558;42.700;23.360;2023-07-13T03:10:33;95529.53;;;22.58;98.65
3096;BME280;1558;42.700;23.360;2023-07-13T03:13:02;95531.06;;;22.66;97.79
3096;BME280;1558;42.700;23.360;2023-07-13T03:15:30;95514.72;;;22.38;96.92
3096;BME280;1558;42.700;23.360;2023-07-13T03:17:58;95531.16;;;22.48;96.98
3096;BME280;1558;42.700;23.360;2023-07-13T03:20:27;95529.22;;;22.42;96.78
3096;BME280;1558;42.700;23.360;2023-07-13T03:22:55;95530.41;;;22.41;96.78
3096;BME280;1558;42.700;23.360;2023-07-13T03:25:23;95524.16;;;22.37;97.10
3096;BME280;1558;42.700;23.360;2023-07-13T03:27:51;95536.66;;;22.45;97.37
3096;BME280;1558;42.700;23.360;2023-07-13T03:30:19;95539.06;;;22.39;96.53
3096;BME280;1558;42.700;23.360;2023-07-13T03:32:47;95541.41;;;22.37;96.68
3096;BME280;1558;42.700;23.360;2023-07-13T03:35:16;95544.97;;;22.38;96.40
3096;BME280;1558;42.700;23.360;2023-07-13T03:37:45;95537.47;;;22.42;96.13
3096;BME280;1558;42.700;23.360;2023-07-13T03:40:13;95545.25;;;22.57;95.31
3096;BME280;1558;42.700;23.360;2023-07-13T03:42:41;95544.06;;;22.55;95.43
3096;BME280;1558;42.700;23.360;2023-07-13T03:45:10;95544.56;;;22.36;95.84
3096;BME280;1558;42.700;23.360;2023-07-13T03:47:37;95536.03;;;22.19;97.84
3096;BME280;1558;42.700;23.360;2023-07-13T03:50:07;95535.19;;;22.30;98.04
3096;BME280;1558;42.700;23.360;2023-07-13T03:52:35;95540.22;;;22.42;98.03
3096;BME280;1558;42.700;23.360;2023-07-13T03:55:05;95505.63;;;22.48;97.70
3096;BME280;1558;42.700;23.360;2023-07-13T03:57:34;95535.75;;;22.72;96.35
3096;BME280;1558;42.700;23.360;2023-07-13T04:00:07;95507.16;;;22.56;95.40
3096;BME280;1558;42.700;23.360;2023-07-13T04:02:35;95538.53;;;22.58;95.77
3096;BME280;1558;42.700;23.360;2023-07-13T04:05:04;95537.41;;;22.56;97.12
3096;BME280;1558;42.700;23.360;2023-07-13T04:07:33;95535.81;;;22.62;97.11
3096;BME280;1558;42.700;23.360;2023-07-13T04:10:01;95527.09;;;22.74;97.21
3096;BME280;1558;42.700;23.360;2023-07-13T04:12:30;95530.63;;;22.74;96.72
3096;BME280;1558;42.700;23.360;2023-07-13T04:14:58;95530.09;;;22.90;97.04
3096;BME280;1558;42.700;23.360;2023-07-13T04:17:26;95539.09;;;22.98;96.30
3096;BME280;1558;42.700;23.360;2023-07-13T04:19:54;95537.81;;;23.13;94.75
3096;BME280;1558;42.700;23.360;2023-07-13T04:22:22;95545.59;;;23.18;94.16
3096;BME280;1558;42.700;23.360;2023-07-13T04:24:50;95541.00;;;23.04;94.37
3096;BME280;1558;42.700;23.360;2023-07-13T04:27:18;95550.28;;;23.24;93.56
3096;BME280;1558;42.700;23.360;2023-07-13T04:29:51;95549.06;;;23.29;92.93
3096;BME280;1558;42.700;23.360;2023-07-13T04:32:19;95554.91;;;23.38;92.89
3096;BME280;1558;42.700;23.360;2023-07-13T04:34:47;95527.44;;;23.27;92.31
3096;BME280;1558;42.700;23.360;2023-07-13T04:37:20;95562.53;;;23.64;91.36
3096;BME280;1558;42.700;23.360;2023-07-13T04:39:48;95546.72;;;23.72;90.27
3096;BME280;1558;42.700;23.360;2023-07-13T04:42:16;95539.03;;;23.90;89.21
3096;BME280;1558;42.700;23.360;2023-07-13T04:44:47;95559.63;;;24.15;88.48
3096;BME280;1558;42.700;23.360;2023-07-13T04:47:17;95556.75;;;24.26;87.76
3096;BME280;1558;42.700;23.360;2023-07-13T04:49:45;95560.69;;;24.25;87.68
3096;BME280;1558;42.700;23.360;2023-07-13T04:52:13;95562.63;;;24.58;86.22
3096;BME280;1558;42.700;23.360;2023-07-13T04:54:41;95571.13;;;24.71;84.87
3096;BME280;1558;42.700;23.360;2023-07-13T04:57:09;95474.56;;;24.14;84.48
3096;BME280;1558;42.700;23.360;2023-07-13T04:59:37;95543.03;;;24.49;84.07
3096;BME280;1558;42.700;23.360;2023-07-13T05:02:06;95577.16;;;24.62;84.07
3096;BME280;1558;42.700;23.360;2023-07-13T05:04:35;95578.06;;;24.82;83.44
3096;BME280;1558;42.700;23.360;2023-07-13T05:07:04;95571.28;;;24.91;82.73
3096;BME280;1558;42.700;23.360;2023-07-13T05:09:33;95577.66;;;25.11;82.44
3096;BME280;1558;42.700;23.360;2023-07-13T05:12:01;95570.44;;;25.43;81.43
3096;BME280;1558;42.700;23.360;2023-07-13T05:14:29;95559.78;;;25.65;80.44
3096;BME280;1558;42.700;23.360;2023-07-13T05:16:57;95566.91;;;25.66;79.62
3096;BME280;1558;42.700;23.360;2023-07-13T05:19:25;95587.44;;;25.65;79.20
3096;BME280;1558;42.700;23.360;2023-07-13T05:21:54;95585.09;;;26.06;78.50
3096;BME280;1558;42.700;23.360;2023-07-13T05:24:22;95582.59;;;26.55;76.60
3096;BME280;1558;42.700;23.360;2023-07-13T05:26:52;95579.72;;;26.78;74.90
3096;BME280;1558;42.700;23.360;2023-07-13T05:29:21;95582.63;;;26.91;73.83
3096;BME280;1558;42.700;23.360;2023-07-13T05:31:49;95555.06;;;27.19;72.92
3096;BME280;1558;42.700;23.360;2023-07-13T05:34:17;95588.16;;;27.42;71.55
3096;BME280;1558;42.700;23.360;2023-07-13T05:36:46;95578.06;;;27.81;70.33
3096;BME280;1558;42.700;23.360;2023-07-13T05:39:15;95581.13;;;28.15;69.05
3096;BME280;1558;42.700;23.360;2023-07-13T05:41:44;95590.56;;;28.46;67.95
3096;BME280;1558;42.700;23.360;2023-07-13T05:44:12;95591.63;;;29.19;65.54
3096;BME280;1558;42.700;23.360;2023-07-13T05:46:40;95581.91;;;29.48;64.05
3096;BME280;1558;42.700;23.360;2023-07-13T05:49:08;95593.44;;;29.72;63.46
3096;BME280;1558;42.700;23.360;2023-07-13T05:51:36;95584.94;;;30.01;61.53
3096;BME280;1558;42.700;23.360;2023-07-13T05:54:04;95588.97;;;30.22;61.09
3096;BME280;1558;42.700;23.360;2023-07-13T05:56:34;95578.66;;;30.65;59.61
3096;BME280;1558;42.700;23.360;2023-07-13T05:59:02;95579.22;;;30.82;57.95
3096;BME280;1558;42.700;23.360;2023-07-13T06:01:30;95539.03;;;30.40;57.19
3096;BME280;1558;42.700;23.360;2023-07-13T06:03:59;95537.94;;;30.25;57.91
3096;BME280;1558;42.700;23.360;2023-07-13T06:06:27;95564.66;;;30.78;58.05
3096;BME280;1558;42.700;23.360;2023-07-13T06:08:55;95564.38;;;30.85;57.55
3096;BME280;1558;42.700;23.360;2023-07-13T06:11:25;95567.09;;;31.37;57.18
3096;BME280;1558;42.700;23.360;2023-07-13T06:13:56;95581.22;;;31.43;56.79
3096;BME280;1558;42.700;23.360;2023-07-13T06:16:25;95582.72;;;31.84;55.75
3096;BME280;1558;42.700;23.360;2023-07-13T06:18:53;95581.84;;;32.05;54.86
3096;BME280;1558;42.700;23.360;2023-07-13T06:21:22;95570.69;;;32.05;53.55
3096;BME280;1558;42.700;23.360;2023-07-13T06:23:52;95583.03;;;31.77;53.67
3096;BME280;1558;42.700;23.360;2023-07-13T06:26:21;95591.09;;;31.93;54.52
3096;BME280;1558;42.700;23.360;2023-07-13T06:28:49;95600.19;;;32.42;53.06
3096;BME280;1558;42.700;23.360;2023-07-13T06:31:19;95583.25;;;32.28;52.52
3096;BME280;1558;42.700;23.360;2023-07-13T06:33:47;95583.09;;;32.67;52.14
3096;BME280;1558;42.700;23.360;2023-07-13T06:36:15;95579.28;;;32.98;51.14
3096;BME280;1558;42.700;23.360;2023-07-13T06:38:43;95580.81;;;33.17;50.83
3096;BME280;1558;42.700;23.360;2023-07-13T06:41:12;95588.09;;;33.65;49.98
3096;BME280;1558;42.700;23.360;2023-07-13T06:43:40;95578.41;;;33.66;48.55
3096;BME280;1558;42.700;23.360;2023-07-13T06:46:09;95585.47;;;33.85;48.21
3096;BME280;1558;42.700;23.360;2023-07-13T06:48:39;95567.50;;;34.39;46.74
3096;BME280;1558;42.700;23.360;2023-07-13T06:51:08;95574.84;;;34.37;45.74
3096;BME280;1558;42.700;23.360;2023-07-13T06:53:37;95574.22;;;34.18;45.95
3096;BME280;1558;42.700;23.360;2023-07-13T06:56:05;95575.03;;;34.33;45.34
3096;BME280;1558;42.700;23.360;2023-07-13T06:58:36;95563.78;;;34.19;44.53
3096;BME280;1558;42.700;23.360;2023-07-13T07:01:04;95580.91;;;34.35;44.51
3096;BME280;1558;42.700;23.360;2023-07-13T07:03:34;95587.28;;;34.74;44.13
3096;BME280;1558;42.700;23.360;2023-07-13T07:06:12;95586.53;;;35.17;42.42
3096;BME280;1558;42.700;23.360;2023-07-13T07:08:41;95579.72;;;35.38;41.25
3096;BME280;1558;42.700;23.360;2023-07-13T07:11:12;95574.66;;;35.08;42.04
3096;BME280;1558;42.700;23.360;2023-07-13T07:13:41;95573.94;;;34.69;41.32
3096;BME280;1558;42.700;23.360;2023-07-13T07:16:09;95550.94;;;34.65;41.62
3096;BME280;1558;42.700;23.360;2023-07-13T07:18:37;95567.00;;;35.08;40.82
3096;BME280;1558;42.700;23.360;2023-07-13T07:21:07;95567.75;;;34.65;41.57
3096;BME280;1558;42.700;23.360;2023-07-13T07:23:36;95566.97;;;34.26;42.55
3096;BME280;1558;42.700;23.360;2023-07-13T07:26:04;95571.25;;;35.18;41.69
3096;BME280;1558;42.700;23.360;2023-07-13T07:28:34;95567.16;;;34.90;40.48
3096;BME280;1558;42.700;23.360;2023-07-13T07:31:05;95550.19;;;35.43;40.71
3096;BME280;1558;42.700;23.360;2023-07-13T07:33:37;95570.47;;;35.32;39.81
3096;BME280;1558;42.700;23.360;2023-07-13T07:36:07;95564.38;;;34.90;41.49
3096;BME280;1558;42.700;23.360;2023-07-13T07:38:38;95540.19;;;35.07;41.20
3096;BME280;1558;42.700;23.360;2023-07-13T07:41:06;95560.28;;;35.35;40.18
3096;BME280;1558;42.700;23.360;2023-07-13T07:43:40;95563.53;;;35.83;39.82
3096;BME280;1558;42.700;23.360;2023-07-13T07:46:08;95555.22;;;35.88;39.19
3096;BME280;1558;42.700;23.360;2023-07-13T07:48:37;95554.44;;;35.68;39.46
3096;BME280;1558;42.700;23.360;2023-07-13T07:51:07;95541.41;;;36.05;39.04
3096;BME280;1558;42.700;23.360;2023-07-13T07:53:35;95559.75;;;35.66;38.31
3096;BME280;1558;42.700;23.360;2023-07-13T07:56:03;95540.56;;;35.29;40.41
3096;BME280;1558;42.700;23.360;2023-07-13T07:58:51;95534.34;;;36.35;39.05
3096;BME280;1558;42.700;23.360;2023-07-13T08:01:23;95549.31;;;36.47;37.27
3096;BME280;1558;42.700;23.360;2023-07-13T08:03:54;95544.22;;;36.05;37.96
3096;BME280;1558;42.700;23.360;2023-07-13T08:06:29;95536.09;;;36.79;37.50
3096;BME280;1558;42.700;23.360;2023-07-13T08:09:02;95487.22;;;35.29;37.78
3096;BME280;1558;42.700;23.360;2023-07-13T08:11:31;95526.47;;;35.59;39.21
3096;BME280;1558;42.700;23.360;2023-07-13T08:14:02;95525.00;;;36.70;38.02
3096;BME280;1558;42.700;23.360;2023-07-13T08:16:31;95516.16;;;36.56;36.28
3096;BME280;1558;42.700;23.360;2023-07-13T08:19:00;95525.25;;;36.92;37.00
3096;BME280;1558;42.700;23.360;2023-07-13T08:21:32;95520.00;;;37.42;36.01
3096;BME280;1558;42.700;23.360;2023-07-13T08:24:00;95517.47;;;36.55;36.99
3096;BME280;1558;42.700;23.360;2023-07-13T08:26:28;95511.06;;;36.55;37.48
3096;BME280;1558;42.700;23.360;2023-07-13T08:28:56;95515.34;;;36.50;37.06
3096;BME280;1558;42.700;23.360;2023-07-13T08:31:24;95517.19;;;36.33;37.58
3096;BME280;1558;42.700;23.360;2023-07-13T08:33:52;95507.53;;;37.17;37.02
3096;BME280;1558;42.700;23.360;2023-07-13T08:36:25;95507.41;;;37.00;35.52
3096;BME280;1558;42.700;23.360;2023-07-13T08:38:58;95501.72;;;36.95;36.42
3096;BME280;1558;42.700;23.360;2023-07-13T08:41:27;95418.31;;;36.60;36.40
3096;BME280;1558;42.700;23.360;2023-07-13T08:43:58;95499.91;;;38.19;35.88
3096;BME280;1558;42.700;23.360;2023-07-13T08:46:32;95501.47;;;38.20;35.18
3096;BME280;1558;42.700;23.360;2023-07-13T08:49:03;95505.81;;;38.15;34.60
3096;BME280;1558;42.700;23.360;2023-07-13T08:51:37;95490.94;;;38.15;34.10
3096;BME280;1558;42.700;23.360;2023-07-13T08:54:18;95503.88;;;36.80;36.58
3096;BME280;1558;42.700;23.360;2023-07-13T08:56:50;95488.66;;;36.92;37.03
3096;BME280;1558;42.700;23.360;2023-07-13T08:59:25;95513.47;;;38.15;35.35
3096;BME280;1558;42.700;23.360;2023-07-13T09:02:06;95421.00;;;37.12;35.13
3096;BME280;1558;42.700;23.360;2023-07-13T09:04:45;95523.44;;;37.25;35.91
3096;BME280;1558;42.700;23.360;2023-07-13T09:07:28;95511.53;;;38.32;34.63
3096;BME280;1558;42.700;23.360;2023-07-13T09:10:09;95536.50;;;38.94;33.87
3096;BME280;1558;42.700;23.360;2023-07-13T09:12:50;95516.44;;;38.59;34.43
3096;BME280;1558;42.700;23.360;2023-07-13T09:15:28;95528.53;;;39.76;33.76
3096;BME280;1558;42.700;23.360;2023-07-13T09:18:02;95521.38;;;39.64;32.36
3096;BME280;1558;42.700;23.360;2023-07-13T09:20:35;95523.44;;;39.36;33.74
3096;BME280;1558;42.700;23.360;2023-07-13T09:23:11;95508.25;;;39.50;33.40
3096;BME280;1558;42.700;23.360;2023-07-13T09:25:42;95529.88;;;39.31;33.44
3096;BME280;1558;42.700;23.360;2023-07-13T09:28:18;95529.63;;;39.17;33.33
3096;BME280;1558;42.700;23.360;2023-07-13T09:30:51;95514.97;;;39.08;34.26
3096;BME280;1558;42.700;23.360;2023-07-13T09:33:21;95520.34;;;39.11;33.34
3096;BME280;1558;42.700;23.360;2023-07-13T09:35:49;95518.97;;;39.84;33.42
3096;BME280;1558;42.700;23.360;2023-07-13T09:38:19;95516.91;;;39.90;32.69
3096;BME280;1558;42.700;23.360;2023-07-13T09:41:01;95491.91;;;40.11;33.07
3096;BME280;1558;42.700;23.360;2023-07-13T09:43:37;95508.25;;;40.46;30.80
3096;BME280;1558;42.700;23.360;2023-07-13T09:46:20;95501.97;;;40.07;32.61
3096;BME280;1558;42.700;23.360;2023-07-13T09:48:52;95502.03;;;39.84;32.51
3096;BME280;1558;42.700;23.360;2023-07-13T09:51:26;95499.00;;;40.34;31.33
3096;BME280;1558;42.700;23.360;2023-07-13T09:53:54;95491.91;;;40.63;31.43
3096;BME280;1558;42.700;23.360;2023-07-13T09:56:27;95483.78;;;40.84;30.27
3096;BME280;1558;42.700;23.360;2023-07-13T09:58:58;95487.69;;;40.34;31.28
3096;BME280;1558;42.700;23.360;2023-07-13T10:01:35;95476.06;;;39.92;31.60
3096;BME280;1558;42.700;23.360;2023-07-13T10:04:11;95478.56;;;40.06;31.93
3096;BME280;1558;42.700;23.360;2023-07-13T10:06:40;95482.38;;;40.20;32.06
3096;BME280;1558;42.700;23.360;2023-07-13T10:09:13;95477.28;;;40.07;30.48
3096;BME280;1558;42.700;23.360;2023-07-13T10:11:44;95444.75;;;39.73;30.75
3096;BME280;1558;42.700;23.360;2023-07-13T10:14:15;95465.09;;;39.55;30.98
3096;BME280;1558;42.700;23.360;2023-07-13T10:16:45;95470.50;;;39.64;31.18
3096;BME280;1558;42.700;23.360;2023-07-13T10:19:17;95461.16;;;39.91;30.88
3096;BME280;1558;42.700;23.360;2023-07-13T10:21:53;95459.03;;;40.90;30.34
3096;BME280;1558;42.700;23.360;2023-07-13T10:24:23;95465.44;;;41.20;30.54
3096;BME280;1558;42.700;23.360;2023-07-13T10:26:57;95462.84;;;41.28;29.90
3096;BME280;1558;42.700;23.360;2023-07-13T10:29:29;95456.03;;;41.12;28.92
3096;BME280;1558;42.700;23.360;2023-07-13T10:32:01;95457.72;;;41.50;29.70
3096;BME280;1558;42.700;23.360;2023-07-13T10:34:29;95454.19;;;41.68;29.32
3096;BME280;1558;42.700;23.360;2023-07-13T10:36:58;95442.00;;;42.16;26.54
3096;BME280;1558;42.700;23.360;2023-07-13T10:39:27;95448.88;;;42.58;24.72
3096;BME280;1558;42.700;23.360;2023-07-13T10:42:00;95399.03;;;41.69;23.85
3096;BME280;1558;42.700;23.360;2023-07-13T10:44:31;95438.47;;;41.43;25.43
3096;BME280;1558;42.700;23.360;2023-07-13T10:47:02;95431.19;;;40.64;24.17
3096;BME280;1558;42.700;23.360;2023-07-13T10:49:34;95432.66;;;40.71;24.65
3096;BME280;1558;42.700;23.360;2023-07-13T10:52:05;95413.00;;;41.13;24.85
3096;BME280;1558;42.700;23.360;2023-07-13T10:54:34;95387.09;;;41.95;25.01
3096;BME280;1558;42.700;23.360;2023-07-13T10:57:20;95424.31;;;42.61;23.51
3096;BME280;1558;42.700;23.360;2023-07-13T11:00:13;95415.63;;;42.21;23.63
3096;BME280;1558;42.700;23.360;2023-07-13T11:02:42;95409.69;;;41.82;23.53
3096;BME280;1558;42.700;23.360;2023-07-13T11:05:22;95418.53;;;42.16;23.43
3096;BME280;1558;42.700;23.360;2023-07-13T11:08:02;95341.06;;;41.65;23.02
3096;BME280;1558;42.700;23.360;2023-07-13T11:10:55;95394.81;;;42.82;22.32
3096;BME280;1558;42.700;23.360;2023-07-13T11:13:55;95389.06;;;43.72;21.31
3096;BME280;1558;42.700;23.360;2023-07-13T11:16:42;95391.06;;;44.11;20.69
3096;BME280;1558;42.700;23.360;2023-07-13T11:22:15;95398.16;;;42.17;21.42
3096;BME280;1558;42.700;23.360;2023-07-13T11:24:53;95389.53;;;41.86;22.08
3096;BME280;1558;42.700;23.360;2023-07-13T11:27:38;95387.09;;;41.76;22.40
3096;BME280;1558;42.700;23.360;2023-07-13T11:30:25;95381.28;;;41.63;23.76
3096;BME280;1558;42.700;23.360;2023-07-13T11:33:07;95377.28;;;41.53;22.00
3096;BME280;1558;42.700;23.360;2023-07-13T11:35:45;95302.63;;;40.54;23.43
3096;BME280;1558;42.700;23.360;2023-07-13T11:38:16;95371.88;;;41.07;22.83
3096;BME280;1558;42.700;23.360;2023-07-13T11:40:48;95368.44;;;40.90;22.94
3096;BME280;1558;42.700;23.360;2023-07-13T11:43:22;95365.25;;;40.99;24.13
3096;BME280;1558;42.700;23.360;2023-07-13T11:45:54;95363.81;;;41.59;23.16
3096;BME280;1558;42.700;23.360;2023-07-13T11:48:27;95365.53;;;41.87;23.62
3096;BME280;1558;42.700;23.360;2023-07-13T11:50:58;95360.78;;;42.13;23.58
3096;BME280;1558;42.700;23.360;2023-07-13T11:53:29;95362.66;;;42.42;22.58
3096;BME280;1558;42.700;23.360;2023-07-13T11:55:58;95358.09;;;42.21;22.72
3096;BME280;1558;42.700;23.360;2023-07-13T11:58:27;95356.34;;;41.80;22.49
3096;BME280;1558;42.700;23.360;2023-07-13T12:01:00;95345.97;;;41.64;23.73
3096;BME280;1558;42.700;23.360;2023-07-13T12:03:33;95352.63;;;41.00;23.54
3096;BME280;1558;42.700;23.360;2023-07-13T12:06:04;95337.22;;;41.19;24.38
3096;BME280;1558;42.700;23.360;2023-07-13T12:08:38;95329.47;;;41.20;24.68
3096;BME280;1558;42.700;23.360;2023-07-13T12:11:15;95337.41;;;41.70;24.24
3096;BME280;1558;42.700;23.360;2023-07-13T12:13:44;95332.31;;;41.44;24.56
3096;BME280;1558;42.700;23.360;2023-07-13T12:16:20;95330.09;;;41.56;25.64
3096;BME280;1558;42.700;23.360;2023-07-13T12:18:52;95322.28;;;41.43;25.00
3096;BME280;1558;42.700;23.360;2023-07-13T12:21:27;95312.22;;;40.99;24.74
3096;BME280;1558;42.700;23.360;2023-07-13T12:23:56;95318.16;;;41.20;24.40
3096;BME280;1558;42.700;23.360;2023-07-13T12:26:24;95316.41;;;40.63;24.42
3096;BME280;1558;42.700;23.360;2023-07-13T12:28:54;95284.44;;;40.14;24.99
3096;BME280;1558;42.700;23.360;2023-07-13T12:31:29;95303.47;;;40.14;24.73
3096;BME280;1558;42.700;23.360;2023-07-13T12:34:00;95298.00;;;40.21;24.80
3096;BME280;1558;42.700;23.360;2023-07-13T12:36:33;95301.03;;;39.94;25.35
3096;BME280;1558;42.700;23.360;2023-07-13T12:39:12;95293.19;;;40.11;24.82
3096;BME280;1558;42.700;23.360;2023-07-13T12:41:41;95284.19;;;39.77;25.19
3096;BME280;1558;42.700;23.360;2023-07-13T12:44:14;95289.78;;;39.31;25.98
3096;BME280;1558;42.700;23.360;2023-07-13T12:46:56;95282.06;;;39.37;25.91
3096;BME280;1558;42.700;23.360;2023-07-13T12:49:30;95270.97;;;39.44;25.50
3096;BME280;1558;42.700;23.360;2023-07-13T12:52:04;95280.84;;;39.21;26.00
3096;BME280;1558;42.700;23.360;2023-07-13T12:54:32;95279.63;;;39.05;25.98
3096;BME280;1558;42.700;23.360;2023-07-13T12:57:01;95270.22;;;38.64;26.69
3096;BME280;1558;42.700;23.360;2023-07-13T12:59:31;95273.53;;;38.68;26.33
3096;BME280;1558;42.700;23.360;2023-07-13T13:02:21;95262.22;;;38.90;26.30
3096;BME280;1558;42.700;23.360;2023-07-13T13:04:50;95265.88;;;38.63;26.70
3096;BME280;1558;42.700;23.360;2023-07-13T13:07:19;95264.81;;;38.66;26.76
3096;BME280;1558;42.700;23.360;2023-07-13T13:09:47;95251.50;;;38.61;25.97
3096;BME280;1558;42.700;23.360;2023-07-13T13:12:15;95252.53;;;38.58;25.73
3096;BME280;1558;42.700;23.360;2023-07-13T13:14:44;95248.38;;;38.87;25.20
3096;BME280;1558;42.700;23.360;2023-07-13T13:17:18;95244.53;;;39.42;24.99
3096;BME280;1558;42.700;23.360;2023-07-13T13:19:47;95229.03;;;39.65;24.67
3096;BME280;1558;42.700;23.360;2023-07-13T13:22:16;95256.47;;;40.35;23.57
3096;BME280;1558;42.700;23.360;2023-07-13T13:24:44;95250.97;;;40.48;24.16
3096;BME280;1558;42.700;23.360;2023-07-13T13:27:15;95253.88;;;40.67;23.16
3096;BME280;1558;42.700;23.360;2023-07-13T13:29:45;95247.06;;;40.51;23.54
3096;BME280;1558;42.700;23.360;2023-07-13T13:32:15;95269.72;;;40.21;23.72